Other Surface Observations
Issued by NWS Great Falls, MT

Home | Current Version | Previous Version | Text Only | Print | Product List | Glossary On
Versions: 1 2 3 4 5 6 7 8 9 10 11 12 13 14 15 16 17 18 19 20 21 22 23 24 25 26 27 28 29 30 31 32 33 34 35 36 37 38 39 40 41 42 43 44 45 46 47 48 49 50
000
SXUS55 KTFX 251559
OSOTFX
AREA AWOS OBSERVATIONS
NATIONAL WEATHER SERVICE GREAT FALLS MT
0959 AM MDT SUN SEP 25 2016

METAR KPWD 251600Z AUTO 29013G22KT 10SM 11/04 A3019 RMK PLENTYWOOD
METAR KPO1 251600Z AUTO 26010KT 10SM 12/05 A3025 RMK POPLAR
METAR K1S3 251600Z AUTO 28007KT 10SM 12/07 A3037 RMK FORSYTH
METAR KS71 251600Z AUTO 00000KT 10SM 11/07 A3031 RMK CHINOOK
METAR K38S 251600Z AUTO 00000KT 10SM 06/01 A3051 RMK DEER LODGE
METAR K3U3 251600Z AUTO 14007KT 10SM 11/00 A3046 RMK ANACONDA
METAR K6S5 251600Z AUTO 16006KT 10SM 10/03 A3048 RMK HAMILTON
METAR KS59 251600Z AUTO 00000KT 10SM 07/04 A3043 RMK LIBBY
METAR K88M 251600Z AUTO 14011G15KT 10SM 13/03 A3040 RMK EUREKA



USA.gov is the U.S. government's official web portal to all federal, state and local government web resources and services.